This is the latest recevied weather packets stored in our database for station/object LROP. If no packets are shown the sender has not sent any weather packets the latest 10 day(s).
| Time | Temp. | Humidity | Pressure | Rain* | Wind** | Luminosity | Snow |
|---|---|---|---|---|---|---|---|
| 1777726082 | 12.22° C | 58% | 1022 hPa | - | - | - | - |
| 1777725182 | 12.22° C | 58% | 1022 hPa | - | - | - | - |
| 1777724282 | 11.11° C | 62% | 1023 hPa | - | - | - | - |
| 1777723390 | 11.11° C | 62% | 1023 hPa | - | - | - | - |
| 1777722482 | 10° C | 62% | 1023 hPa | - | - | - | - |
| 1777721581 | 10° C | 62% | 1023 hPa | - | - | - | - |
| 1777720682 | 12.78° C | 67% | 1023 hPa | - | - | - | - |
| 1777719782 | 12.78° C | 67% | 1023 hPa | - | - | - | - |
| 1777718882 | 10° C | 76% | 1023 hPa | - | - | - | - |
| 1777717982 | 10° C | 76% | 1023 hPa | - | - | - | - |
| 1777716182 | 12.22° C | 58% | 1023 hPa | - | - | - | - |
| 1777715282 | 12.22° C | 54% | 1022 hPa | - | - | - | - |
| 1777714456 | 13.89° C | 51% | 1023 hPa | - | - | - | - |
| 1777713482 | 13.89° C | 51% | 1023 hPa | - | - | - | - |
| 1777712582 | 13.89° C | 51% | 1023 hPa | - | - | - | - |
| 1777711689 | 12.22° C | 54% | 1023 hPa | - | - | - | - |
| 1777710782 | 12.22° C | 54% | 1023 hPa | - | - | - | - |
| 1777709882 | 12.22° C | 54% | 1023 hPa | - | - | - | - |
| 1777708981 | 12.22° C | 54% | 1023 hPa | - | - | - | - |
| 1777708082 | 12.22° C | 54% | 1023 hPa | - | - | - | - |
| 1777707182 | 12.22° C | 54% | 1023 hPa | - | - | - | - |
| 1777706282 | 12.78° C | 55% | 1023 hPa | - | - | - | - |
| 1777705383 | 12.78° C | 55% | 1023 hPa | - | - | - | - |
| 1777704482 | 12.22° C | 67% | 1023 hPa | - | - | - | - |
| 1777703582 | 12.22° C | 67% | 1023 hPa | - | - | - | - |
* Rain since midnight (hover to see other rain measurements)
** Current wind speed in m/s (hover to see current wind gust speed)